Time;durP1;ratioP1;P1;durP2;ratioP2;P2;SDS_P1;SDS_P2;PMS_P1;PMS_P2;Temp;Humidity;BMP_temperature;BMP_pressure;BME280_temperature;BME280_humidity;BME280_pressure;Samples;Min_cycle;Max_cycle;Signal;HPM_P1;HPM_P2
2021/09/30 00:00:51;;;;;;;2.17;1.00;;;;;;;11.54;65.49;100321.97;6095396;23;20530;-80
2021/09/30 00:03:18;;;;;;;3.83;0.95;;;;;;;11.52;65.74;100326.47;6095505;23;20437;-80
2021/09/30 00:05:45;;;;;;;2.13;0.80;;;;;;;11.51;65.53;100322.09;6094969;23;20034;-78
2021/09/30 00:08:13;;;;;;;3.33;0.90;;;;;;;11.47;65.66;100331.97;6094978;23;20046;-77
2021/09/30 00:10:46;;;;;;;5.65;1.00;;;;;;;11.46;65.51;100332.91;6095031;23;20037;-78
2021/09/30 00:13:39;;;;;;;5.35;1.35;;;;;;;11.46;65.56;100334.69;6090133;23;20102;-77
2021/09/30 00:35:38;;;;;;;2.83;1.05;;;;;;;11.36;65.41;100346.63;6096689;23;20391;-79
2021/09/30 00:41:34;;;;;;;3.53;1.10;;;;;;;11.32;65.54;100348.56;6096497;23;20113;-80
2021/09/30 02:58:40;;;;;;;1.95;1.60;;;;;;;11.33;66.10;100424.91;6064839;23;20363;-80
2021/09/30 03:01:11;;;;;;;2.70;1.77;;;;;;;11.34;66.31;100431.06;6096592;23;20026;-79
2021/09/30 03:03:41;;;;;;;3.10;1.67;;;;;;;11.34;66.55;100433.69;6096667;23;20450;-79
2021/09/30 03:06:08;;;;;;;4.00;1.33;;;;;;;11.37;66.37;100424.78;6096475;23;20345;-80
2021/09/30 03:08:45;;;;;;;3.65;1.60;;;;;;;11.37;66.80;100427.41;6096924;23;20025;-79
2021/09/30 03:11:13;;;;;;;5.13;1.50;;;;;;;11.43;66.47;100440.28;6097044;23;20101;-80
2021/09/30 03:13:43;;;;;;;8.80;1.60;;;;;;;11.45;66.45;100427.88;6096362;23;20102;-80
2021/09/30 03:16:25;;;;;;;2.70;1.63;;;;;;;11.47;66.21;100436.56;6096243;23;20097;-80
2021/09/30 03:19:00;;;;;;;3.40;1.75;;;;;;;11.49;66.10;100431.22;6096523;23;20065;-80
2021/09/30 03:24:19;;;;;;;2.30;1.58;;;;;;;11.50;66.01;100446.97;6097589;23;20026;-80
2021/09/30 03:26:47;;;;;;;4.75;2.03;;;;;;;11.49;65.84;100442.63;6097041;23;20477;-80
2021/09/30 03:29:14;;;;;;;3.40;1.70;;;;;;;11.49;65.89;100444.41;6096068;23;20023;-80
2021/09/30 03:31:42;;;;;;;3.17;1.60;;;;;;;11.47;66.02;100453.25;6096400;23;20022;-80
2021/09/30 03:34:09;;;;;;;4.95;1.80;;;;;;;11.47;65.76;100461.16;6096133;23;20514;-80
2021/09/30 03:36:36;;;;;;;4.32;1.65;;;;;;;11.47;65.90;100458.50;6096096;23;20101;-80
2021/09/30 03:39:12;;;;;;;3.78;1.88;;;;;;;11.45;66.12;100457.72;6096003;23;20019;-80
2021/09/30 03:41:42;;;;;;;5.90;2.03;;;;;;;11.47;66.04;100461.16;6096311;23;20032;-80
2021/09/30 03:44:12;;;;;;;4.82;1.65;;;;;;;11.47;66.43;100463.78;6096179;23;20064;-80
2021/09/30 03:46:39;;;;;;;5.05;1.83;;;;;;;11.50;66.29;100467.19;6096082;23;20105;-80
2021/09/30 03:49:12;;;;;;;6.35;2.13;;;;;;;11.52;66.27;100463.56;6096294;23;20066;-80
2021/09/30 03:57:22;;;;;;;4.35;1.83;;;;;;;11.57;66.28;100477.38;6097851;23;20401;-80
2021/09/30 03:59:49;;;;;;;4.05;1.88;;;;;;;11.59;66.13;100475.50;6095900;23;20106;-80
2021/09/30 04:02:18;;;;;;;5.10;2.03;;;;;;;11.57;66.35;100464.19;6095866;23;20028;-79
2021/09/30 04:04:47;;;;;;;4.13;2.20;;;;;;;11.61;66.09;100475.44;6095941;23;20342;-80
2021/09/30 04:07:15;;;;;;;6.80;1.90;;;;;;;11.62;66.17;100471.00;6105781;23;20124;-80
2021/09/30 04:09:45;;;;;;;4.40;1.90;;;;;;;11.61;66.54;100480.69;6096160;23;20054;-79
2021/09/30 04:12:12;;;;;;;5.60;2.30;;;;;;;11.64;66.18;100479.69;6096255;23;20346;-80
2021/09/30 04:14:45;;;;;;;3.42;1.83;;;;;;;11.63;66.75;100481.50;6095516;23;20022;-80
2021/09/30 04:17:12;;;;;;;5.82;2.50;;;;;;;11.66;66.25;100485.75;6095993;23;20027;-80
2021/09/30 04:19:39;;;;;;;4.20;1.67;;;;;;;11.66;66.12;100475.22;6095652;23;20025;-79
2021/09/30 04:22:07;;;;;;;3.65;1.50;;;;;;;11.65;66.21;100479.63;6096201;23;20529;-79
2021/09/30 04:24:34;;;;;;;5.90;1.80;;;;;;;11.67;66.25;100483.03;6095465;23;20029;-80
2021/09/30 04:27:00;;;;;;;3.38;1.55;;;;;;;11.67;66.26;100476.91;6096242;23;20058;-80
2021/09/30 04:29:27;;;;;;;2.65;1.52;;;;;;;11.67;66.20;100485.66;6095993;23;20026;-80
2021/09/30 04:31:54;;;;;;;2.47;1.63;;;;;;;11.68;66.24;100490.03;6095677;23;20022;-80
2021/09/30 04:34:21;;;;;;;3.70;1.75;;;;;;;11.69;66.20;100486.44;6095549;23;20105;-80
2021/09/30 04:36:48;;;;;;;3.92;1.88;;;;;;;11.72;66.13;100496.00;6096321;23;20022;-80
2021/09/30 04:39:16;;;;;;;4.50;1.90;;;;;;;11.72;66.17;100496.00;6098122;23;20494;-80
2021/09/30 04:41:45;;;;;;;6.05;2.10;;;;;;;11.70;66.03;100503.97;6097661;23;20105;-80
2021/09/30 04:44:13;;;;;;;6.28;2.63;;;;;;;11.70;65.89;100500.50;6097954;23;20394;-80
2021/09/30 04:46:41;;;;;;;4.10;1.83;;;;;;;11.66;66.09;100499.78;6097706;23;20113;-80
2021/09/30 04:49:07;;;;;;;4.10;2.05;;;;;;;11.65;65.75;100498.06;6097694;23;20097;-80
2021/09/30 04:51:36;;;;;;;5.90;2.38;;;;;;;11.60;66.13;100500.09;6098079;23;20029;-80
2021/09/30 04:54:03;;;;;;;8.10;2.85;;;;;;;11.58;66.00;100502.81;6097451;23;20037;-80
2021/09/30 04:56:30;;;;;;;4.57;2.35;;;;;;;11.55;66.08;100510.03;6097677;23;20023;-80
2021/09/30 04:59:03;;;;;;;8.45;3.20;;;;;;;11.49;66.61;100507.66;6097778;23;20037;-80
2021/09/30 05:01:30;;;;;;;5.22;2.83;;;;;;;11.47;66.19;100508.59;6097825;23;20655;-79
2021/09/30 05:03:59;;;;;;;7.05;3.17;;;;;;;11.41;66.53;100522.09;6097364;23;20038;-80
2021/09/30 05:06:26;;;;;;;6.90;3.20;;;;;;;11.38;66.30;100521.38;6097775;23;20149;-79
2021/09/30 05:08:59;;;;;;;7.65;3.17;;;;;;;11.34;66.73;100524.13;6097617;23;20069;-80
2021/09/30 05:11:36;;;;;;;5.80;3.10;;;;;;;11.31;66.33;100518.19;6097656;23;20458;-79
2021/09/30 05:14:20;;;;;;;6.15;3.40;;;;;;;11.28;66.49;100527.09;6097186;23;20460;-80
2021/09/30 05:16:49;;;;;;;6.70;3.30;;;;;;;11.24;66.60;100522.88;6097537;23;20068;-80
2021/09/30 05:19:16;;;;;;;7.90;3.47;;;;;;;11.21;66.56;100533.56;6097482;23;20101;-80
2021/09/30 05:21:44;;;;;;;4.65;3.22;;;;;;;11.17;66.67;100530.22;6097647;23;20489;-80
2021/09/30 05:24:11;;;;;;;4.35;2.90;;;;;;;11.16;66.64;100527.66;6097182;23;20022;-79
2021/09/30 05:26:40;;;;;;;7.72;3.17;;;;;;;11.12;66.95;100536.63;6097745;23;20110;-79
2021/09/30 05:29:08;;;;;;;7.85;3.25;;;;;;;11.12;66.68;100536.63;6098916;23;20026;-80
2021/09/30 05:31:37;;;;;;;9.18;2.97;;;;;;;11.07;67.04;100539.50;6097203;23;20112;-80
2021/09/30 05:34:04;;;;;;;7.15;3.20;;;;;;;11.05;66.83;100533.44;6097487;23;20506;-79
2021/09/30 05:36:39;;;;;;;7.60;3.15;;;;;;;11.01;67.42;100547.66;6097569;23;20097;-80
2021/09/30 05:39:06;;;;;;;8.90;2.70;;;;;;;11.01;66.85;100532.72;6097665;23;20019;-80
2021/09/30 05:41:33;;;;;;;5.78;2.95;;;;;;;10.99;66.88;100534.56;6097612;23;20026;-80
2021/09/30 05:44:08;;;;;;;6.47;3.33;;;;;;;10.97;66.99;100541.69;6098099;23;20476;-81
2021/09/30 05:46:45;;;;;;;13.00;3.47;;;;;;;10.97;66.98;100540.84;6097404;23;20022;-80
2021/09/30 05:49:29;;;;;;;3.50;2.40;;;;;;;10.94;66.90;100531.28;6096517;23;20017;-80
2021/09/30 05:51:56;;;;;;;11.38;3.40;;;;;;;10.93;67.14;100543.63;6096961;23;20023;-80
2021/09/30 05:54:24;;;;;;;8.50;3.03;;;;;;;10.92;66.93;100539.25;6097343;23;20362;-80
2021/09/30 05:56:50;;;;;;;5.07;2.60;;;;;;;10.91;67.09;100537.56;6097267;23;20461;-80
2021/09/30 05:59:21;;;;;;;5.78;2.88;;;;;;;10.91;67.25;100534.06;6096925;23;20105;-80
2021/09/30 06:10:32;;;;;;;7.38;3.40;;;;;;;10.87;67.47;100556.22;6098513;23;20342;-78
2021/09/30 06:13:07;;;;;;;7.93;2.80;;;;;;;10.85;67.11;100561.56;6097498;23;20517;-78
2021/09/30 06:15:39;;;;;;;9.80;2.72;;;;;;;10.86;67.11;100557.13;6097031;23;20033;-78
2021/09/30 06:18:07;;;;;;;6.78;2.67;;;;;;;10.84;67.20;100559.81;6096979;23;20036;-78
2021/09/30 06:20:56;;;;;;;7.35;2.72;;;;;;;10.78;68.15;100555.72;6097187;23;20105;-78
2021/09/30 06:23:22;;;;;;;4.82;2.90;;;;;;;10.81;67.23;100558.19;6096926;23;20030;-78
2021/09/30 06:25:55;;;;;;;10.20;3.10;;;;;;;10.78;68.34;100570.66;6098048;23;20022;-78
2021/09/30 06:28:22;;;;;;;;;;;;;;;10.80;68.40;100563.53;6096973;23;20026;-78
2021/09/30 06:30:49;;;;;;;6.32;2.25;;;;;;;10.84;67.26;100565.09;6096987;23;19924;-78
2021/09/30 06:33:16;;;;;;;8.63;2.72;;;;;;;10.84;67.33;100572.16;6096851;23;20073;-78
2021/09/30 06:35:47;;;;;;;10.95;2.97;;;;;;;10.81;67.89;100565.25;6096697;23;20022;-78
2021/09/30 06:38:34;;;;;;;6.25;2.67;;;;;;;10.84;67.51;100569.53;6096604;23;20097;-78
2021/09/30 06:41:04;;;;;;;8.18;2.53;;;;;;;10.82;67.81;100570.47;6097203;23;20028;-80
2021/09/30 06:43:31;;;;;;;7.35;2.35;;;;;;;10.85;67.63;100577.38;6096968;23;20022;-80
2021/09/30 06:46:03;;;;;;;7.32;2.88;;;;;;;10.85;68.32;100573.88;6096469;23;20037;-80
2021/09/30 06:48:30;;;;;;;8.05;2.67;;;;;;;10.90;67.63;100585.03;6098149;23;20026;-80
2021/09/30 06:51:00;;;;;;;6.60;2.55;;;;;;;10.90;67.97;100585.91;6096907;23;20033;-80
2021/09/30 06:53:27;;;;;;;4.70;2.17;;;;;;;10.96;67.72;100590.06;6096513;23;20031;-80
2021/09/30 06:55:59;;;;;;;9.40;2.80;;;;;;;10.96;67.81;100587.41;6096235;23;20101;-80
2021/09/30 06:58:26;;;;;;;7.35;2.60;;;;;;;11.00;67.70;100591.63;6096892;23;20342;-80
2021/09/30 07:00:56;;;;;;;7.35;2.90;;;;;;;11.03;67.82;100588.81;6096483;23;20022;-80
2021/09/30 07:03:25;;;;;;;9.38;2.55;;;;;;;11.07;67.82;100593.03;6097119;23;20058;-80
2021/09/30 07:05:52;;;;;;;4.95;2.67;;;;;;;11.11;67.73;100596.41;6096159;23;20061;-80
2021/09/30 07:08:20;;;;;;;8.05;2.45;;;;;;;11.15;67.81;100594.47;6096226;23;20462;-80
2021/09/30 07:10:47;;;;;;;11.85;2.67;;;;;;;11.18;67.65;100583.81;6097101;23;20384;-80
2021/09/30 07:13:14;;;;;;;10.68;2.50;;;;;;;11.21;67.63;100616.13;6096828;23;20460;-80
2021/09/30 07:15:44;;;;;;;4.72;2.47;;;;;;;11.23;67.83;100608.16;6096384;23;20442;-80
2021/09/30 07:18:19;;;;;;;5.95;2.30;;;;;;;11.26;67.88;100608.03;6095909;23;20029;-80
2021/09/30 07:20:50;;;;;;;8.80;2.78;;;;;;;11.31;67.71;100600.75;6096453;23;20349;-80
2021/09/30 07:23:20;;;;;;;5.70;2.08;;;;;;;11.33;68.07;100611.22;6096090;23;20031;-80
2021/09/30 07:25:47;;;;;;;8.73;2.20;;;;;;;11.39;67.63;100612.69;6096750;23;20030;-80
2021/09/30 07:28:22;;;;;;;4.28;2.22;;;;;;;11.40;67.83;100611.78;6096023;23;20101;-80
2021/09/30 07:30:49;;;;;;;6.97;2.28;;;;;;;11.45;67.53;100608.00;6096444;23;20062;-80
2021/09/30 07:33:20;;;;;;;7.22;2.03;;;;;;;11.48;67.51;100612.28;6096014;23;20022;-80
2021/09/30 07:35:48;;;;;;;6.90;2.28;;;;;;;11.53;67.35;100612.91;6095812;23;20022;-80
2021/09/30 07:38:22;;;;;;;5.90;2.50;;;;;;;11.55;67.81;100616.31;6096039;23;20022;-80
2021/09/30 07:40:50;;;;;;;7.45;2.20;;;;;;;11.61;67.46;100612.53;6096512;23;20058;-80
2021/09/30 07:43:17;;;;;;;4.18;2.00;;;;;;;11.65;67.49;100619.38;6096461;23;20105;-80
2021/09/30 07:45:44;;;;;;;5.00;1.98;;;;;;;11.70;67.38;100621.81;6097444;23;20101;-80
2021/09/30 07:48:24;;;;;;;13.02;2.47;;;;;;;11.70;67.73;100620.00;6096625;23;20430;-80
2021/09/30 07:50:51;;;;;;;8.48;2.30;;;;;;;11.78;67.29;100627.56;6095915;23;20101;-80
2021/09/30 07:53:18;;;;;;;5.18;2.45;;;;;;;11.82;67.25;100615.94;6096447;23;20054;-80
2021/09/30 07:55:51;;;;;;;6.10;2.63;;;;;;;11.85;67.37;100626.34;6096239;23;20042;-80
2021/09/30 07:58:19;;;;;;;10.43;2.22;;;;;;;11.92;67.22;100621.63;6096541;23;20022;-81
2021/09/30 08:00:45;;;;;;;6.50;2.13;;;;;;;11.97;67.15;100624.03;6096112;23;20546;-81
2021/09/30 08:03:12;;;;;;;7.30;2.40;;;;;;;12.02;67.18;100635.22;6097469;23;20029;-81
2021/09/30 08:05:39;;;;;;;7.15;2.53;;;;;;;12.07;67.14;100630.59;6095950;23;20434;-80
2021/09/30 08:08:08;;;;;;;6.75;2.47;;;;;;;12.13;66.99;100634.72;6096262;23;20411;-80
2021/09/30 08:10:54;;;;;;;6.38;2.05;;;;;;;12.16;67.14;100624.03;6095965;23;20097;-80
2021/09/30 08:13:21;;;;;;;8.05;2.10;;;;;;;12.25;66.84;100622.69;6095972;23;20105;-80
2021/09/30 08:15:53;;;;;;;7.25;1.95;;;;;;;12.29;66.93;100633.97;6096038;23;20412;-81
2021/09/30 08:18:24;;;;;;;7.70;2.00;;;;;;;12.37;66.50;100637.06;6095681;23;20037;-80
2021/09/30 08:20:51;;;;;;;13.27;2.63;;;;;;;12.43;66.75;100635.91;6096020;23;20105;-80
2021/09/30 08:23:18;;;;;;;5.32;2.10;;;;;;;12.52;66.48;100645.97;6096298;23;20026;-80
2021/09/30 08:25:47;;;;;;;7.30;2.30;;;;;;;12.56;66.30;100639.63;6096133;23;20318;-80
2021/09/30 08:28:14;;;;;;;8.20;2.40;;;;;;;12.63;66.38;100637.50;6095667;23;20029;-80
2021/09/30 08:30:41;;;;;;;8.40;2.17;;;;;;;12.69;66.19;100642.50;6096124;23;20093;-80
2021/09/30 08:33:08;;;;;;;6.35;1.95;;;;;;;12.76;66.25;100643.03;6095713;23;20105;-80
2021/09/30 08:35:37;;;;;;;10.82;2.50;;;;;;;12.81;66.03;100638.34;6096419;23;20094;-80
2021/09/30 08:38:10;;;;;;;7.13;2.05;;;;;;;12.85;65.80;100637.25;6097177;23;20029;-80
2021/09/30 08:40:36;;;;;;;;;;;;;;;12.93;65.77;100649.22;6096385;23;20434;-79
2021/09/30 08:43:03;;;;;;;4.65;1.52;;;;;;;13.03;65.52;100645.16;6096232;23;20244;-78
2021/09/30 08:45:42;;;;;;;6.82;1.70;;;;;;;13.05;65.55;100653.88;6095962;23;20026;-79
2021/09/30 08:48:09;;;;;;;8.10;1.50;;;;;;;13.13;65.54;100651.63;6096130;23;20022;-78
2021/09/30 08:50:41;;;;;;;8.23;2.00;;;;;;;13.16;65.31;100656.78;6095583;23;20023;-78
2021/09/30 08:53:11;;;;;;;6.82;1.75;;;;;;;13.25;65.64;100651.94;6095738;23;20109;-78
2021/09/30 08:55:39;;;;;;;5.50;1.48;;;;;;;13.33;65.41;100665.59;6095414;23;20038;-79
2021/09/30 08:58:15;;;;;;;4.10;1.77;;;;;;;13.37;64.72;100660.97;6095623;23;20026;-79
2021/09/30 09:00:42;;;;;;;10.80;2.13;;;;;;;13.48;65.08;100656.00;6096092;23;20501;-78
2021/09/30 09:03:09;;;;;;;8.02;1.67;;;;;;;13.55;65.01;100672.38;6095769;23;20079;-79
2021/09/30 09:05:38;;;;;;;6.28;1.80;;;;;;;13.63;64.50;100656.09;6095347;23;20027;-78
2021/09/30 09:08:24;;;;;;;6.93;1.63;;;;;;;13.66;63.71;100670.03;6095610;23;20022;-78
2021/09/30 09:10:54;;;;;;;8.05;1.65;;;;;;;13.78;64.15;100657.03;6095629;23;20026;-79
2021/09/30 09:13:24;;;;;;;6.45;1.70;;;;;;;13.86;64.30;100665.38;6096459;23;20026;-78
2021/09/30 09:16:04;;;;;;;4.60;1.42;;;;;;;13.90;63.55;100666.94;6095601;23;20357;-78
2021/09/30 09:18:42;;;;;;;8.40;1.80;;;;;;;13.99;63.87;100659.41;6095578;23;20065;-79
2021/09/30 09:21:22;;;;;;;7.22;1.98;;;;;;;14.10;63.55;100661.44;6096080;23;20509;-78
2021/09/30 09:23:49;;;;;;;9.05;1.98;;;;;;;14.17;63.35;100660.16;6096816;23;20101;-78
2021/09/30 09:26:19;;;;;;;7.20;1.98;;;;;;;14.22;62.33;100659.88;6097303;23;20022;-79
2021/09/30 09:29:06;;;;;;;10.82;2.25;;;;;;;14.24;62.93;100661.50;6097182;23;20028;-79
2021/09/30 09:31:52;;;;;;;8.52;1.92;;;;;;;14.31;63.17;100662.84;6097011;23;20029;-78
2021/09/30 09:34:29;;;;;;;9.02;1.90;;;;;;;14.41;62.54;100657.88;6097544;23;20094;-78
2021/09/30 09:37:17;;;;;;;7.88;1.88;;;;;;;14.50;62.26;100679.47;6089481;23;20805;-79
2021/09/30 09:39:48;;;;;;;10.20;1.92;;;;;;;14.60;61.65;100675.31;6097392;23;20353;-79
2021/09/30 09:42:19;;;;;;;8.48;1.67;;;;;;;14.67;61.75;100674.03;6097845;23;20064;-79
2021/09/30 09:45:13;;;;;;;9.73;1.88;;;;;;;14.72;61.01;100671.94;6096987;23;20022;-79
2021/09/30 09:47:44;;;;;;;5.95;1.60;;;;;;;14.81;60.83;100673.19;6097696;23;20081;-79
2021/09/30 09:50:36;;;;;;;10.13;1.67;;;;;;;14.85;61.91;100672.06;6097016;23;20093;-79
2021/09/30 09:53:03;;;;;;;8.87;1.80;;;;;;;14.98;62.15;100653.63;6097154;23;20022;-79
2021/09/30 09:55:41;;;;;;;9.30;1.92;;;;;;;15.05;61.12;100669.16;6096918;23;20093;-78
2021/09/30 09:58:11;;;;;;;5.13;1.63;;;;;;;15.18;61.33;100666.63;6097286;23;20105;-79
2021/09/30 10:00:57;;;;;;;7.03;1.75;;;;;;;15.22;59.89;100658.34;6097783;23;20490;-79
2021/09/30 10:03:30;;;;;;;7.20;1.80;;;;;;;15.32;60.58;100677.22;6097053;23;20098;-79
2021/09/30 10:06:03;;;;;;;7.20;1.83;;;;;;;15.41;60.24;100659.03;6090894;23;20026;-79
2021/09/30 10:08:45;;;;;;;7.53;1.85;;;;;;;15.47;59.62;100664.78;6097264;23;20338;-79
2021/09/30 10:11:12;;;;;;;4.68;1.27;;;;;;;15.61;60.48;100666.56;6096753;23;20026;-80
2021/09/30 10:13:44;;;;;;;8.38;2.00;;;;;;;15.71;59.41;100664.19;6096700;23;20101;-79
2021/09/30 10:16:15;;;;;;;8.13;1.65;;;;;;;15.85;59.31;100667.75;6098349;23;20040;-79
2021/09/30 10:18:42;;;;;;;6.03;1.33;;;;;;;15.98;60.44;100655.41;6096478;23;20101;-79
2021/09/30 10:21:15;;;;;;;4.43;1.35;;;;;;;16.11;59.43;100663.41;6097252;23;20025;-79
2021/09/30 10:23:42;;;;;;;;;;;;;;;16.27;58.38;100678.34;6097497;23;20526;-79
2021/09/30 10:26:44;;;;;;;7.35;1.52;;;;;;;16.48;58.57;100664.59;6097659;23;20237;-79
2021/09/30 10:29:49;;;;;;;10.27;1.40;;;;;;;16.62;56.78;100658.31;6096280;23;20109;-79
2021/09/30 10:32:22;;;;;;;9.32;1.95;;;;;;;16.74;56.02;100654.81;6097162;23;20406;-78
2021/09/30 10:35:01;;;;;;;6.30;1.77;;;;;;;16.83;56.69;100665.78;6096324;23;20026;-78
2021/09/30 10:37:31;;;;;;;8.48;1.70;;;;;;;16.88;56.04;100664.50;6096928;23;20514;-78
2021/09/30 10:40:19;;;;;;;4.00;1.25;;;;;;;16.91;56.93;100666.97;6097044;23;20029;-77
2021/09/30 10:42:56;;;;;;;5.82;1.80;;;;;;;16.99;56.17;100668.22;6096555;23;20026;-79
2021/09/30 10:45:27;;;;;;;8.60;1.70;;;;;;;17.01;56.12;100667.16;6096392;23;20030;-77
2021/09/30 10:48:07;;;;;;;8.80;2.03;;;;;;;16.98;54.85;100666.53;6096913;23;20473;-78
2021/09/30 10:50:52;;;;;;;10.73;2.17;;;;;;;17.02;55.75;100665.34;6097090;23;20125;-78
2021/09/30 10:53:19;;;;;;;6.22;1.63;;;;;;;17.05;56.49;100662.53;6096354;23;20023;-78
2021/09/30 10:55:46;;;;;;;8.32;1.90;;;;;;;17.11;56.51;100661.22;6096832;23;20434;-78
2021/09/30 10:58:24;;;;;;;10.68;2.13;;;;;;;17.13;55.08;100662.84;6096661;23;20342;-78
2021/09/30 11:00:58;;;;;;;6.22;1.80;;;;;;;17.23;54.43;100662.19;6096602;23;20029;-78
2021/09/30 11:03:27;;;;;;;6.00;1.50;;;;;;;17.35;56.33;100661.31;6096971;23;20032;-78
2021/09/30 11:06:06;;;;;;;8.02;1.60;;;;;;;17.50;55.50;100659.38;6096439;23;20058;-78
2021/09/30 11:08:35;;;;;;;8.35;1.70;;;;;;;17.82;57.60;100658.81;6096670;23;20109;-78
2021/09/30 11:11:04;;;;;;;6.40;1.80;;;;;;;18.18;56.97;100661.56;6096252;23;20027;-78
2021/09/30 11:13:31;;;;;;;8.25;1.52;;;;;;;18.54;56.35;100656.22;6096328;23;20033;-78
2021/09/30 11:16:07;;;;;;;10.02;2.22;;;;;;;18.88;52.99;100669.63;6096049;23;20407;-78
2021/09/30 11:18:37;;;;;;;5.95;1.67;;;;;;;19.19;51.80;100645.06;6096140;23;20026;-78
2021/09/30 11:21:30;;;;;;;8.40;1.50;;;;;;;19.37;51.15;100666.75;6096534;23;20339;-78
2021/09/30 11:24:01;;;;;;;6.28;1.50;;;;;;;19.59;52.46;100666.84;6096641;23;20509;-78
2021/09/30 11:26:34;;;;;;;11.00;1.88;;;;;;;19.81;53.09;100673.13;6096010;23;20030;-78
2021/09/30 11:29:27;;;;;;;8.25;1.73;;;;;;;20.14;51.45;100669.53;6097676;23;20030;-78
2021/09/30 11:31:53;;;;;;;3.25;1.33;;;;;;;20.53;52.11;100670.81;6096036;23;20561;-78
2021/09/30 11:34:24;;;;;;;4.47;1.30;;;;;;;20.73;49.21;100661.06;6096471;23;20026;-78
2021/09/30 11:36:52;;;;;;;4.90;1.83;;;;;;;20.82;48.23;100667.47;6096027;23;20109;-78
2021/09/30 11:39:21;;;;;;;4.32;1.35;;;;;;;20.77;47.24;100661.63;6096483;23;20029;-78
2021/09/30 11:41:50;;;;;;;3.47;1.30;;;;;;;20.68;46.37;100674.00;6096809;23;20037;-78
2021/09/30 11:44:19;;;;;;;5.75;1.95;;;;;;;20.60;47.41;100658.59;6096369;23;20029;-78
2021/09/30 11:46:51;;;;;;;5.68;1.55;;;;;;;20.56;45.88;100671.38;6095648;23;20030;-78
2021/09/30 11:49:19;;;;;;;6.03;1.40;;;;;;;20.64;48.13;100662.69;6096110;23;20026;-78
2021/09/30 11:51:46;;;;;;;6.38;1.38;;;;;;;20.75;46.99;100656.41;6096451;23;20494;-78
2021/09/30 11:54:15;;;;;;;4.88;1.27;;;;;;;20.88;46.39;100663.41;6095497;23;20029;-78
2021/09/30 11:56:45;;;;;;;5.28;1.67;;;;;;;21.07;46.78;100646.59;6095886;23;20027;-78
2021/09/30 11:59:16;;;;;;;3.20;1.17;;;;;;;21.35;47.55;100650.38;6095780;23;20093;-78
2021/09/30 12:01:55;;;;;;;5.65;1.58;;;;;;;21.56;43.78;100649.44;6095971;23;20022;-78
2021/09/30 12:04:47;;;;;;;5.88;1.40;;;;;;;21.72;43.42;100645.41;6095980;23;20506;-78
2021/09/30 12:07:24;;;;;;;5.93;1.45;;;;;;;21.88;43.47;100655.59;6096083;23;20105;-78
2021/09/30 12:09:56;;;;;;;7.75;1.95;;;;;;;22.05;44.38;100647.84;6095887;23;20425;-78
2021/09/30 12:12:32;;;;;;;7.75;1.20;;;;;;;22.24;43.74;100638.97;6095939;23;20105;-78
2021/09/30 12:14:59;;;;;;;4.10;1.17;;;;;;;22.51;44.51;100642.72;6096672;23;20022;-78
2021/09/30 12:17:34;;;;;;;6.10;1.30;;;;;;;22.71;43.35;100638.19;6094902;23;20028;-79
2021/09/30 12:20:08;;;;;;;4.93;1.40;;;;;;;22.91;40.71;100654.22;6095134;23;20069;-78
2021/09/30 12:22:39;;;;;;;7.38;1.50;;;;;;;23.06;42.45;100645.72;6095160;23;20023;-78
2021/09/30 12:25:16;;;;;;;5.75;1.33;;;;;;;23.11;41.71;100643.41;6094844;23;20077;-78
2021/09/30 12:27:52;;;;;;;6.28;1.40;;;;;;;23.16;41.05;100635.75;6094686;23;20105;-78
2021/09/30 12:30:29;;;;;;;3.42;1.33;;;;;;;23.24;42.50;100627.81;6096494;23;20029;-78
2021/09/30 12:33:03;;;;;;;8.80;1.65;;;;;;;23.39;41.43;100625.50;6096147;23;20018;-78
2021/09/30 12:35:32;;;;;;;5.60;1.10;;;;;;;23.56;41.24;100626.50;6096840;23;20097;-78
2021/09/30 12:38:17;;;;;;;5.38;1.40;;;;;;;23.54;39.45;100633.88;6096101;23;20022;-78
2021/09/30 12:40:53;;;;;;;8.07;1.58;;;;;;;23.39;39.11;100622.81;6095644;23;20110;-78
2021/09/30 12:43:29;;;;;;;6.85;1.52;;;;;;;23.24;39.15;100619.75;6096743;23;20379;-78
2021/09/30 12:46:00;;;;;;;3.72;1.52;;;;;;;23.25;40.02;100624.09;6095744;23;20501;-78
2021/09/30 12:48:32;;;;;;;3.63;0.93;;;;;;;23.40;41.63;100607.53;6096052;23;20098;-78
2021/09/30 12:51:06;;;;;;;6.70;1.35;;;;;;;23.64;40.64;100614.16;6095227;23;20025;-78
2021/09/30 12:53:49;;;;;;;5.68;1.10;;;;;;;23.95;40.48;100611.94;6095925;23;20065;-78
2021/09/30 12:56:19;;;;;;;3.75;1.17;;;;;;;24.33;40.77;100611.75;6095937;23;20506;-78
2021/09/30 12:58:51;;;;;;;3.85;1.30;;;;;;;24.69;40.11;100601.88;6097568;23;20438;-78
2021/09/30 13:01:28;;;;;;;3.55;1.50;;;;;;;25.01;35.05;100602.25;6098148;23;20508;-78
2021/09/30 13:04:22;;;;;;;3.72;1.38;;;;;;;25.26;37.61;100605.84;6097483;23;20061;-78
2021/09/30 13:07:05;;;;;;;3.10;1.38;;;;;;;25.42;36.79;100598.84;6097510;23;20022;-78
2021/09/30 13:09:33;;;;;;;6.43;1.67;;;;;;;25.48;36.76;100593.63;6098187;23;20152;-78
2021/09/30 13:12:03;;;;;;;6.85;1.48;;;;;;;25.35;34.86;100585.19;6097675;23;20077;-78
2021/09/30 13:14:44;;;;;;;4.07;1.20;;;;;;;25.04;34.45;100589.28;6097614;23;20105;-78
2021/09/30 13:17:34;;;;;;;2.90;1.42;;;;;;;24.67;35.41;100602.03;6097403;23;20166;-79
2021/09/30 13:20:06;;;;;;;3.50;1.23;;;;;;;24.34;35.14;100589.22;6097534;23;20022;-78
2021/09/30 13:22:34;;;;;;;4.72;1.13;;;;;;;23.93;36.10;100591.59;6097669;23;20034;-78
2021/09/30 13:25:10;;;;;;;2.88;1.15;;;;;;;23.50;36.20;100596.69;6097266;23;20030;-78
2021/09/30 13:27:40;;;;;;;3.78;1.20;;;;;;;23.15;36.80;100605.38;6097165;23;20029;-78
2021/09/30 13:30:09;;;;;;;5.60;1.70;;;;;;;22.75;37.03;100588.59;6097600;23;20430;-78
2021/09/30 13:32:42;;;;;;;5.20;1.48;;;;;;;22.36;36.77;100584.16;6097978;23;20115;-78
2021/09/30 13:35:10;;;;;;;4.13;1.35;;;;;;;22.06;37.61;100583.38;6097643;23;20157;-78
2021/09/30 13:37:40;;;;;;;5.22;1.23;;;;;;;21.72;37.12;100581.94;6097358;23;20022;-78
2021/09/30 13:40:09;;;;;;;8.85;1.55;;;;;;;21.43;37.99;100577.41;6097118;23;20025;-78
2021/09/30 13:42:40;;;;;;;4.93;1.23;;;;;;;21.13;38.05;100575.63;6097026;23;20105;-78
2021/09/30 13:45:10;;;;;;;3.90;1.30;;;;;;;20.88;38.41;100572.44;6097274;23;20080;-78
2021/09/30 13:47:38;;;;;;;4.78;1.10;;;;;;;20.66;39.16;100569.78;6096938;23;20031;-78
2021/09/30 13:50:08;;;;;;;3.63;1.25;;;;;;;20.46;39.39;100563.50;6097597;23;20022;-78
2021/09/30 13:52:40;;;;;;;6.07;1.33;;;;;;;20.28;39.27;100571.28;6094520;23;20026;-78
2021/09/30 13:55:07;;;;;;;4.68;1.42;;;;;;;20.14;39.62;100557.25;6096765;23;20486;-78
2021/09/30 13:57:34;;;;;;;2.47;1.20;;;;;;;20.01;39.60;100564.63;6096949;23;20353;-78
2021/09/30 14:00:07;;;;;;;4.97;1.58;;;;;;;19.85;39.48;100568.53;6096824;23;20102;-78
2021/09/30 14:02:41;;;;;;;3.53;1.45;;;;;;;19.78;39.76;100567.38;6097892;23;20442;-78
2021/09/30 14:05:12;;;;;;;4.50;1.50;;;;;;;19.71;39.86;100569.72;6096764;23;20026;-78
2021/09/30 14:07:41;;;;;;;4.90;1.40;;;;;;;19.71;40.71;100566.19;6097002;23;20081;-78
2021/09/30 14:10:15;;;;;;;2.60;1.20;;;;;;;19.67;40.33;100570.94;6096086;23;20030;-78
2021/09/30 14:12:43;;;;;;;2.85;1.25;;;;;;;19.63;40.50;100567.66;6097575;23;20093;-78
2021/09/30 14:15:11;;;;;;;3.53;1.13;;;;;;;19.56;40.20;100561.13;6096746;23;20354;-78
2021/09/30 14:17:40;;;;;;;2.35;0.95;;;;;;;19.46;40.21;100561.03;6096804;23;20022;-78
2021/09/30 14:20:10;;;;;;;5.93;1.55;;;;;;;19.33;39.34;100563.84;6096779;23;20031;-78
2021/09/30 14:22:37;;;;;;;2.70;1.05;;;;;;;19.24;40.32;100560.13;6098554;23;20498;-78
2021/09/30 14:25:07;;;;;;;3.95;1.20;;;;;;;19.12;39.99;100550.44;6096020;23;20022;-78
2021/09/30 14:27:34;;;;;;;3.90;1.27;;;;;;;19.05;40.47;100549.19;6096376;23;20022;-78
2021/09/30 14:30:02;;;;;;;2.97;1.10;;;;;;;18.96;40.37;100548.13;6096313;23;20026;-78
2021/09/30 14:32:28;;;;;;;3.55;1.00;;;;;;;18.87;40.25;100545.22;6095832;23;20101;-78
2021/09/30 14:34:56;;;;;;;4.43;1.30;;;;;;;18.77;40.54;100546.94;6095780;23;20032;-78
2021/09/30 14:37:23;;;;;;;2.80;1.02;;;;;;;18.70;40.93;100543.03;6096705;23;20040;-78
2021/09/30 14:39:58;;;;;;;5.25;1.58;;;;;;;18.60;40.66;100546.44;6096663;23;20030;-78